createdAt,value
2022-12-03T00:00:13.526Z,31.00
2022-12-03T00:01:05.328Z,35.00
2022-12-03T00:01:37.017Z,38.70
2022-12-03T00:02:08.836Z,35.70
2022-12-03T00:02:41.420Z,33.40
2022-12-03T00:03:13.420Z,35.70
2022-12-03T00:03:45.432Z,36.10
2022-12-03T00:04:17.753Z,37.90
2022-12-03T00:04:49.915Z,37.60
2022-12-03T00:05:21.814Z,37.40
2022-12-03T00:05:53.578Z,38.90
2022-12-03T00:06:26.321Z,33.00
2022-12-03T00:06:59.898Z,31.50
2022-12-03T00:07:31.732Z,33.10
2022-12-03T00:08:03.544Z,36.00
2022-12-03T00:08:35.485Z,32.20
2022-12-03T00:09:07.330Z,35.80
2022-12-03T00:09:39.013Z,39.50
2022-12-03T00:10:11.041Z,40.10
2022-12-03T00:10:42.766Z,34.00
2022-12-03T00:11:14.450Z,37.20
2022-12-03T00:11:46.135Z,37.50
2022-12-03T00:12:17.910Z,32.00
2022-12-03T00:12:49.928Z,32.00
2022-12-03T00:13:22.125Z,36.40
2022-12-03T00:13:54.267Z,34.90
2022-12-03T00:14:26.652Z,35.80
2022-12-03T00:14:58.779Z,32.00
2022-12-03T00:15:30.655Z,33.20
2022-12-03T00:16:02.627Z,36.00
2022-12-03T00:16:34.519Z,34.20
2022-12-03T00:17:06.375Z,37.60
2022-12-03T00:17:38.202Z,34.00
2022-12-03T00:18:09.883Z,37.80
2022-12-03T00:18:41.637Z,34.10
2022-12-03T00:19:13.377Z,36.80
2022-12-03T00:19:45.261Z,31.50
2022-12-03T00:20:21.548Z,36.90
2022-12-03T00:20:53.243Z,34.00
2022-12-03T00:21:25.113Z,36.70
2022-12-03T00:21:57.061Z,36.30
2022-12-03T00:22:28.730Z,33.80
2022-12-03T00:23:00.679Z,31.70
2022-12-03T00:23:34.895Z,33.20
2022-12-03T00:24:10.556Z,37.60
2022-12-03T00:24:42.337Z,32.20
2022-12-03T00:25:14.250Z,32.20
2022-12-03T00:25:46.027Z,33.50
2022-12-03T00:26:17.684Z,31.70
2022-12-03T00:26:49.477Z,28.60
2022-12-03T00:27:21.656Z,29.60
2022-12-03T00:27:53.342Z,30.20
2022-12-03T00:28:25.043Z,31.60
2022-12-03T00:28:57.611Z,30.80
2022-12-03T00:29:29.394Z,32.70
2022-12-03T00:30:01.124Z,32.40
2022-12-03T00:30:32.954Z,36.90
2022-12-03T00:31:04.732Z,31.60
2022-12-03T00:31:36.729Z,34.10
2022-12-03T00:32:08.518Z,29.90
2022-12-03T00:32:40.180Z,30.70
2022-12-03T00:33:11.806Z,32.80
2022-12-03T00:33:43.659Z,32.70
2022-12-03T00:34:15.472Z,33.40
2022-12-03T00:34:47.218Z,30.60
2022-12-03T00:35:18.986Z,32.40
2022-12-03T00:35:50.773Z,33.50
2022-12-03T00:36:22.428Z,33.70
2022-12-03T00:36:54.065Z,31.30
2022-12-03T00:37:25.742Z,34.00
2022-12-03T00:37:57.468Z,32.70
2022-12-03T00:38:29.227Z,34.50
2022-12-03T00:39:01.008Z,34.60
2022-12-03T00:39:32.690Z,34.70
2022-12-03T00:40:05.095Z,34.20
2022-12-03T00:40:37.108Z,33.60
2022-12-03T00:41:08.974Z,37.90
2022-12-03T00:41:40.839Z,35.30
2022-12-03T00:42:12.676Z,40.80
2022-12-03T00:42:44.390Z,34.80
2022-12-03T00:43:15.930Z,30.20
2022-12-03T00:43:47.732Z,31.10
2022-12-03T00:44:19.406Z,33.20
2022-12-03T00:44:51.600Z,33.10
2022-12-03T00:45:23.427Z,33.50
2022-12-03T00:45:55.238Z,30.10
2022-12-03T00:46:26.929Z,30.50
2022-12-03T00:46:58.863Z,33.90
2022-12-03T00:47:30.715Z,36.00
2022-12-03T00:48:02.478Z,35.00
2022-12-03T00:48:34.998Z,33.70
2022-12-03T00:49:06.902Z,35.00
2022-12-03T00:49:38.654Z,38.10
2022-12-03T00:50:10.602Z,35.10
2022-12-03T00:50:42.292Z,35.70
2022-12-03T00:51:14.114Z,34.90
2022-12-03T00:51:46.170Z,33.20
2022-12-03T00:52:18.494Z,35.60
2022-12-03T00:52:50.382Z,32.80
2022-12-03T00:53:22.040Z,32.10
2022-12-03T00:53:53.816Z,35.20
2022-12-03T00:54:30.211Z,34.60
2022-12-03T00:55:03.849Z,34.10
2022-12-03T00:55:35.673Z,32.10
2022-12-03T00:56:07.761Z,31.70
2022-12-03T00:56:39.537Z,34.00
2022-12-03T00:57:11.350Z,33.60
2022-12-03T00:57:42.943Z,36.30
2022-12-03T00:58:14.611Z,34.20
2022-12-03T00:58:46.307Z,34.60
2022-12-03T00:59:18.076Z,33.00
2022-12-03T00:59:49.897Z,35.10
2022-12-03T01:00:24.148Z,34.40
2022-12-03T01:00:56.132Z,35.00
2022-12-03T01:01:27.861Z,35.80
2022-12-03T01:01:59.701Z,33.60
2022-12-03T01:02:31.567Z,36.50
2022-12-03T01:03:03.745Z,34.80
2022-12-03T01:03:35.558Z,35.10
2022-12-03T01:04:07.242Z,36.70
2022-12-03T01:04:39.051Z,33.80
2022-12-03T01:05:10.938Z,33.90
2022-12-03T01:05:42.766Z,33.90
2022-12-03T01:06:14.625Z,38.30
2022-12-03T01:06:46.326Z,37.80
2022-12-03T01:07:18.035Z,35.70
2022-12-03T01:07:49.749Z,37.60
2022-12-03T01:08:21.720Z,37.30
2022-12-03T01:08:53.425Z,36.80
2022-12-03T01:09:25.032Z,35.50
2022-12-03T01:09:56.730Z,37.10
2022-12-03T01:10:28.648Z,36.30
2022-12-03T01:11:26.340Z,37.20
2022-12-03T01:11:58.129Z,33.00
2022-12-03T01:12:29.994Z,36.70
2022-12-03T01:13:01.848Z,38.00
2022-12-03T01:13:33.556Z,36.40
2022-12-03T01:14:06.377Z,39.70
2022-12-03T01:14:38.114Z,37.10
2022-12-03T01:15:10.207Z,36.90
2022-12-03T01:15:42.056Z,36.70
2022-12-03T01:16:17.719Z,35.60
2022-12-03T01:16:49.609Z,35.60
2022-12-03T01:17:21.349Z,36.20
2022-12-03T01:17:53.906Z,38.10
2022-12-03T01:18:25.908Z,38.10
2022-12-03T01:19:04.672Z,42.30
2022-12-03T01:19:36.577Z,38.30
2022-12-03T01:20:08.830Z,35.20
2022-12-03T01:20:40.463Z,33.30
2022-12-03T01:21:12.302Z,33.90
2022-12-03T01:21:44.904Z,36.60
2022-12-03T01:22:16.550Z,37.40
2022-12-03T01:22:48.196Z,33.20
2022-12-03T01:23:19.907Z,37.30
2022-12-03T01:23:51.777Z,34.80
2022-12-03T01:24:23.483Z,34.40
2022-12-03T01:24:55.711Z,35.80
2022-12-03T01:25:27.628Z,33.00
2022-12-03T01:25:59.264Z,37.70
2022-12-03T01:26:31.057Z,36.20
2022-12-03T01:27:02.873Z,37.20
2022-12-03T01:27:34.609Z,35.00
2022-12-03T01:28:06.268Z,38.30
2022-12-03T01:28:37.981Z,37.10
2022-12-03T01:29:10.173Z,36.30
2022-12-03T01:29:41.844Z,34.00
2022-12-03T01:30:13.727Z,37.90
2022-12-03T01:31:04.280Z,35.90
2022-12-03T01:31:54.535Z,34.80
2022-12-03T01:32:26.441Z,32.00
2022-12-03T01:32:58.246Z,38.60
2022-12-03T01:33:30.285Z,35.50
2022-12-03T01:34:02.131Z,34.80
2022-12-03T01:34:33.836Z,38.70
2022-12-03T01:35:05.873Z,36.00
2022-12-03T01:35:37.599Z,34.20
2022-12-03T01:36:09.481Z,39.40
2022-12-03T01:36:41.164Z,36.50
2022-12-03T01:37:13.447Z,38.70
2022-12-03T01:37:45.160Z,37.70
2022-12-03T01:38:16.933Z,38.50
2022-12-03T01:38:49.008Z,38.90
2022-12-03T01:39:20.956Z,36.90
2022-12-03T01:39:53.040Z,35.70
2022-12-03T01:40:29.107Z,36.00
2022-12-03T01:41:00.929Z,37.90
2022-12-03T01:41:33.388Z,34.80
2022-12-03T01:42:06.161Z,33.30
2022-12-03T01:42:47.144Z,36.10
2022-12-03T01:43:20.117Z,33.70
2022-12-03T01:43:52.832Z,39.70
2022-12-03T01:44:26.845Z,35.10
2022-12-03T01:44:59.260Z,41.50
2022-12-03T01:45:30.944Z,35.10
2022-12-03T01:46:03.108Z,38.10
2022-12-03T01:46:37.684Z,34.30
2022-12-03T01:47:19.876Z,34.50
2022-12-03T01:47:51.620Z,38.00
2022-12-03T01:48:23.482Z,39.20
2022-12-03T01:48:55.629Z,36.10
2022-12-03T01:49:29.422Z,40.50
2022-12-03T01:50:25.356Z,34.00
2022-12-03T01:50:57.340Z,41.20
2022-12-03T01:51:29.705Z,39.40
2022-12-03T01:52:01.448Z,35.10
2022-12-03T01:52:35.519Z,35.00
2022-12-03T01:53:09.658Z,32.70
2022-12-03T01:53:41.632Z,33.60
2022-12-03T01:54:17.764Z,35.40
2022-12-03T01:54:55.692Z,36.80
2022-12-03T01:55:27.722Z,37.70
2022-12-03T01:55:59.479Z,35.50
2022-12-03T01:56:31.199Z,35.30
2022-12-03T01:57:03.366Z,36.50
2022-12-03T01:57:40.897Z,36.50
2022-12-03T01:58:14.126Z,42.40
2022-12-03T01:58:46.374Z,37.30
2022-12-03T01:59:19.650Z,38.10
2022-12-03T01:59:52.107Z,38.70
2022-12-03T02:00:26.600Z,34.50
2022-12-03T02:01:01.410Z,39.10
2022-12-03T02:01:33.198Z,36.20
2022-12-03T02:02:11.756Z,34.80
2022-12-03T02:02:44.264Z,36.60
2022-12-03T02:03:22.462Z,35.90
2022-12-03T02:03:54.469Z,38.10
2022-12-03T02:04:26.412Z,35.30
2022-12-03T02:04:59.313Z,36.10
2022-12-03T02:05:32.962Z,36.00
2022-12-03T02:06:08.719Z,36.00
2022-12-03T02:06:41.532Z,32.80
2022-12-03T02:07:24.374Z,38.90
2022-12-03T02:07:56.851Z,40.10
2022-12-03T02:08:38.826Z,41.00
2022-12-03T02:09:11.747Z,39.60
2022-12-03T02:09:43.627Z,37.60
2022-12-03T02:10:16.789Z,41.40
2022-12-03T02:10:48.764Z,53.80
2022-12-03T02:11:24.173Z,54.00
2022-12-03T02:11:56.167Z,65.60
2022-12-03T02:12:31.356Z,62.00
2022-12-03T02:13:05.037Z,75.70
2022-12-03T02:13:36.908Z,82.40
2022-12-03T02:14:10.382Z,85.40
2022-12-03T02:14:42.339Z,76.00
2022-12-03T02:15:14.149Z,63.60
2022-12-03T02:15:46.196Z,57.30
2022-12-03T02:16:17.989Z,46.30
2022-12-03T02:16:50.018Z,52.50
2022-12-03T02:17:21.923Z,50.90
2022-12-03T02:17:54.465Z,48.00
2022-12-03T02:18:26.359Z,46.40
2022-12-03T02:18:58.135Z,44.10
2022-12-03T02:19:30.246Z,49.50
2022-12-03T02:20:03.745Z,58.50
2022-12-03T02:20:40.057Z,55.30
2022-12-03T02:21:30.382Z,72.10
2022-12-03T02:22:07.850Z,66.40
2022-12-03T02:22:51.515Z,69.10
2022-12-03T02:23:23.227Z,73.60
2022-12-03T02:24:04.524Z,68.70
2022-12-03T02:24:38.709Z,69.80
2022-12-03T02:25:36.971Z,57.90
2022-12-03T02:26:08.828Z,62.20
2022-12-03T02:26:40.623Z,61.30
2022-12-03T02:27:12.325Z,58.20
2022-12-03T02:27:44.030Z,54.60
2022-12-03T02:28:15.712Z,64.00
2022-12-03T02:28:47.414Z,59.40
2022-12-03T02:29:19.376Z,67.00
2022-12-03T02:29:51.399Z,57.50
2022-12-03T02:30:24.192Z,51.20
2022-12-03T02:30:56.231Z,52.00
2022-12-03T02:31:28.294Z,51.40
2022-12-03T02:32:00.120Z,48.60
2022-12-03T02:32:31.946Z,51.80
2022-12-03T02:33:03.869Z,46.80
2022-12-03T02:33:35.807Z,49.50
2022-12-03T02:34:07.931Z,47.80
2022-12-03T02:34:41.285Z,56.50
2022-12-03T02:35:23.283Z,57.30
2022-12-03T02:35:58.014Z,60.10
2022-12-03T02:36:35.009Z,45.90
2022-12-03T02:37:09.607Z,44.30
2022-12-03T02:37:41.754Z,46.20
2022-12-03T02:38:16.663Z,48.60
2022-12-03T02:38:48.991Z,43.50
2022-12-03T02:39:20.777Z,55.90
2022-12-03T02:39:56.461Z,60.10
2022-12-03T02:40:31.108Z,59.20
2022-12-03T02:41:07.706Z,69.20
2022-12-03T02:41:57.897Z,58.50
2022-12-03T02:42:35.622Z,59.30
2022-12-03T02:43:08.214Z,52.10
2022-12-03T02:43:40.318Z,51.90
2022-12-03T02:44:12.021Z,47.10
2022-12-03T02:44:43.702Z,48.20
2022-12-03T02:45:17.862Z,51.90
2022-12-03T02:45:51.558Z,48.50
2022-12-03T02:46:23.685Z,49.30
2022-12-03T02:46:55.547Z,59.90
2022-12-03T02:47:28.180Z,56.60
2022-12-03T02:48:02.255Z,55.10
2022-12-03T02:48:35.190Z,73.40
2022-12-03T02:49:07.002Z,82.90
2022-12-03T02:49:38.885Z,85.50
2022-12-03T02:50:12.153Z,78.30
2022-12-03T02:50:46.725Z,79.10
2022-12-03T02:51:18.445Z,74.90
2022-12-03T02:51:50.350Z,79.30
2022-12-03T02:52:22.083Z,74.70
2022-12-03T02:52:54.863Z,78.30
2022-12-03T02:53:28.305Z,70.60
2022-12-03T02:54:00.297Z,64.40
2022-12-03T02:54:31.942Z,64.60
2022-12-03T02:55:04.955Z,61.40
2022-12-03T02:55:37.514Z,66.20
2022-12-03T02:56:11.516Z,61.60
2022-12-03T02:56:43.261Z,52.80
2022-12-03T02:57:15.951Z,52.60
2022-12-03T02:57:48.026Z,48.90
2022-12-03T02:58:20.331Z,49.40
2022-12-03T02:58:53.510Z,48.00
2022-12-03T02:59:25.164Z,57.50
2022-12-03T02:59:57.018Z,57.30
2022-12-03T03:00:28.847Z,53.50
2022-12-03T03:01:01.446Z,58.40
2022-12-03T03:01:34.473Z,50.90
2022-12-03T03:02:06.223Z,52.30
2022-12-03T03:02:38.922Z,50.20
2022-12-03T03:03:11.172Z,44.80
2022-12-03T03:03:44.109Z,46.20
2022-12-03T03:04:16.081Z,46.90
2022-12-03T03:04:48.060Z,45.00
2022-12-03T03:05:21.190Z,44.40
2022-12-03T03:05:53.273Z,46.60
2022-12-03T03:06:25.161Z,51.00
2022-12-03T03:06:57.068Z,49.30
2022-12-03T03:07:28.940Z,50.00
2022-12-03T03:08:01.389Z,48.70
2022-12-03T03:08:33.664Z,48.30
2022-12-03T03:09:05.514Z,49.90
2022-12-03T03:09:37.381Z,48.50
2022-12-03T03:10:11.193Z,47.00
2022-12-03T03:10:43.209Z,44.70
2022-12-03T03:11:15.040Z,43.80
2022-12-03T03:11:46.940Z,50.50
2022-12-03T03:12:18.642Z,47.60
2022-12-03T03:12:52.140Z,45.70
2022-12-03T03:13:23.920Z,41.70
2022-12-03T03:13:55.851Z,45.60
2022-12-03T03:14:27.601Z,48.40
2022-12-03T03:15:00.191Z,46.00
2022-12-03T03:15:31.967Z,50.30
2022-12-03T03:16:04.542Z,47.10
2022-12-03T03:16:36.451Z,46.00
2022-12-03T03:17:08.199Z,44.40
2022-12-03T03:17:40.676Z,41.00
2022-12-03T03:18:13.037Z,46.20
2022-12-03T03:18:44.934Z,44.40
2022-12-03T03:19:16.624Z,47.70
2022-12-03T03:19:48.623Z,42.00
2022-12-03T03:20:20.507Z,49.10
2022-12-03T03:20:53.104Z,40.60
2022-12-03T03:21:24.997Z,45.20
2022-12-03T03:21:56.852Z,44.70
2022-12-03T03:22:32.882Z,40.90
2022-12-03T03:23:06.790Z,44.20
2022-12-03T03:23:39.834Z,37.80
2022-12-03T03:24:11.659Z,45.00
2022-12-03T03:24:43.501Z,43.80
2022-12-03T03:25:16.954Z,49.10
2022-12-03T03:25:58.545Z,40.80
2022-12-03T03:26:30.352Z,46.30
2022-12-03T03:27:02.089Z,48.00
2022-12-03T03:27:34.106Z,48.10
2022-12-03T03:28:05.898Z,47.00
2022-12-03T03:28:38.648Z,47.00
2022-12-03T03:29:10.448Z,44.80
2022-12-03T03:29:42.047Z,46.40
2022-12-03T03:30:14.185Z,40.20
2022-12-03T03:30:46.236Z,40.70
2022-12-03T03:31:20.886Z,44.80
2022-12-03T03:31:52.706Z,44.20
2022-12-03T03:32:28.213Z,41.50
2022-12-03T03:32:59.999Z,43.00
2022-12-03T03:33:32.238Z,45.60
2022-12-03T03:34:04.151Z,43.40
2022-12-03T03:34:35.877Z,45.30
2022-12-03T03:35:08.481Z,54.80
2022-12-03T03:35:40.473Z,49.30
2022-12-03T03:36:13.245Z,46.40
2022-12-03T03:36:45.212Z,46.00
2022-12-03T03:37:16.926Z,46.00
2022-12-03T03:37:48.668Z,47.40
2022-12-03T03:38:21.749Z,45.80
2022-12-03T03:38:53.516Z,48.40
2022-12-03T03:39:25.426Z,44.80
2022-12-03T03:39:57.271Z,41.30
2022-12-03T03:40:29.283Z,44.00
2022-12-03T03:41:02.348Z,46.20
2022-12-03T03:41:34.523Z,45.10
2022-12-03T03:42:06.255Z,45.60
2022-12-03T03:42:38.476Z,46.00
2022-12-03T03:43:10.292Z,47.30
2022-12-03T03:43:43.472Z,44.80
2022-12-03T03:44:15.169Z,48.40
2022-12-03T03:44:47.803Z,42.30
2022-12-03T03:45:24.146Z,48.20
2022-12-03T03:46:33.187Z,41.80
2022-12-03T03:47:05.149Z,45.10
2022-12-03T03:47:36.897Z,45.40
2022-12-03T03:48:08.653Z,52.60
2022-12-03T03:48:41.051Z,45.90
2022-12-03T03:49:12.805Z,46.10
2022-12-03T03:49:44.556Z,45.40
2022-12-03T03:50:16.808Z,44.30
2022-12-03T03:50:49.135Z,42.60
2022-12-03T03:51:21.216Z,45.20
2022-12-03T03:51:52.958Z,45.80
2022-12-03T03:52:24.925Z,46.90
2022-12-03T03:52:57.019Z,48.40
2022-12-03T03:53:29.649Z,48.80
2022-12-03T03:54:02.140Z,47.20
2022-12-03T03:54:33.784Z,43.90
2022-12-03T03:55:06.406Z,42.90
2022-12-03T03:55:38.656Z,48.50
2022-12-03T03:56:10.927Z,44.30
2022-12-03T03:56:42.658Z,45.60
2022-12-03T03:57:14.313Z,43.10
2022-12-03T03:57:46.148Z,49.20
2022-12-03T03:58:17.985Z,45.40
2022-12-03T03:58:49.915Z,50.10
2022-12-03T03:59:21.777Z,44.00
2022-12-03T03:59:53.526Z,44.60
2022-12-03T04:00:25.392Z,44.30
2022-12-03T04:00:57.232Z,49.10
2022-12-03T04:01:29.659Z,45.30
2022-12-03T04:02:01.479Z,46.40
2022-12-03T04:02:33.607Z,43.90
2022-12-03T04:03:05.894Z,50.00
2022-12-03T04:03:37.677Z,48.60
2022-12-03T04:04:15.379Z,45.90
2022-12-03T04:04:47.379Z,50.50
2022-12-03T04:05:19.927Z,46.80
2022-12-03T04:05:51.779Z,45.10
2022-12-03T04:06:23.489Z,49.50
2022-12-03T04:06:55.107Z,50.40
2022-12-03T04:07:26.863Z,44.20
2022-12-03T04:07:58.866Z,46.20
2022-12-03T04:08:30.648Z,46.30
2022-12-03T04:09:02.457Z,48.10
2022-12-03T04:09:34.178Z,46.10
2022-12-03T04:10:26.078Z,49.30
2022-12-03T04:11:16.501Z,47.30
2022-12-03T04:12:06.915Z,48.00
2022-12-03T04:12:56.445Z,45.20
2022-12-03T04:13:28.535Z,47.00
2022-12-03T04:14:00.323Z,42.60
2022-12-03T04:14:32.020Z,48.90
2022-12-03T04:15:04.842Z,49.90
2022-12-03T04:15:36.541Z,48.60
2022-12-03T04:16:08.342Z,49.90
2022-12-03T04:16:40.130Z,46.20
2022-12-03T04:17:11.890Z,47.70
2022-12-03T04:17:43.666Z,47.20
2022-12-03T04:18:33.934Z,45.80
2022-12-03T04:19:05.766Z,44.20
2022-12-03T04:19:37.448Z,51.70
2022-12-03T04:20:09.373Z,43.90
2022-12-03T04:20:41.417Z,46.20
2022-12-03T04:21:39.631Z,46.80
2022-12-03T04:22:29.805Z,48.40
2022-12-03T04:23:01.649Z,46.90
2022-12-03T04:23:33.374Z,47.60
2022-12-03T04:24:05.939Z,45.50
2022-12-03T04:24:37.535Z,44.60
2022-12-03T04:25:28.478Z,48.10
2022-12-03T04:26:19.003Z,49.10
2022-12-03T04:27:09.358Z,48.60
2022-12-03T04:27:59.608Z,48.20
2022-12-03T04:28:49.577Z,45.10
2022-12-03T04:29:21.633Z,45.70
2022-12-03T04:29:53.381Z,47.60
2022-12-03T04:30:25.199Z,43.90
2022-12-03T04:30:56.989Z,48.20
2022-12-03T04:31:47.470Z,49.10
2022-12-03T04:32:37.829Z,46.10
2022-12-03T04:33:28.111Z,44.00
2022-12-03T04:34:18.420Z,41.50
2022-12-03T04:35:08.581Z,44.10
2022-12-03T04:35:43.405Z,45.90
2022-12-03T04:36:15.111Z,49.50
2022-12-03T04:36:46.850Z,44.60
2022-12-03T04:37:18.418Z,48.40
2022-12-03T04:37:50.154Z,46.00
2022-12-03T04:38:21.817Z,50.20
2022-12-03T04:38:53.566Z,45.00
2022-12-03T04:39:25.247Z,41.60
2022-12-03T04:39:57.279Z,46.70
2022-12-03T04:40:47.589Z,44.70
2022-12-03T04:41:19.181Z,47.30
2022-12-03T04:41:50.867Z,45.30
2022-12-03T04:42:22.563Z,42.80
2022-12-03T04:42:54.315Z,45.80
2022-12-03T04:43:26.498Z,46.70
2022-12-03T04:44:17.259Z,44.50
2022-12-03T04:44:48.859Z,43.70
2022-12-03T04:45:20.664Z,43.10
2022-12-03T04:45:52.369Z,47.80
2022-12-03T04:46:24.182Z,47.60
2022-12-03T04:46:55.807Z,44.20
2022-12-03T04:47:27.458Z,46.20
2022-12-03T04:47:59.113Z,45.50
2022-12-03T04:48:30.867Z,49.70
2022-12-03T04:49:02.541Z,45.80
2022-12-03T04:49:35.188Z,49.70
2022-12-03T04:50:07.154Z,47.30
2022-12-03T04:50:38.849Z,46.10
2022-12-03T04:51:10.554Z,42.70
2022-12-03T04:51:42.196Z,41.50
2022-12-03T04:52:14.829Z,47.70
2022-12-03T04:52:46.503Z,43.10
2022-12-03T04:53:18.630Z,41.80
2022-12-03T04:53:50.351Z,47.30
2022-12-03T04:54:22.161Z,47.90
2022-12-03T04:54:54.429Z,44.10
2022-12-03T04:55:26.324Z,45.90
2022-12-03T04:55:57.881Z,46.90
2022-12-03T04:56:29.617Z,49.00
2022-12-03T04:57:01.639Z,46.80
2022-12-03T04:57:33.444Z,47.60
2022-12-03T04:58:05.102Z,43.80
2022-12-03T04:58:36.725Z,47.40
2022-12-03T04:59:12.793Z,44.70
2022-12-03T04:59:47.682Z,46.60
2022-12-03T05:00:19.512Z,44.40
2022-12-03T05:00:51.777Z,45.10
2022-12-03T05:01:24.094Z,41.90
2022-12-03T05:01:55.872Z,41.40
2022-12-03T05:02:27.571Z,43.60
2022-12-03T05:02:59.635Z,47.10
2022-12-03T05:03:33.127Z,47.20
2022-12-03T05:04:04.764Z,45.40
2022-12-03T05:04:36.523Z,47.60
2022-12-03T05:05:08.547Z,48.30
2022-12-03T05:05:40.327Z,44.10
2022-12-03T05:06:12.070Z,46.30
2022-12-03T05:06:43.956Z,43.30
2022-12-03T05:07:15.521Z,45.90
2022-12-03T05:07:47.297Z,44.70
2022-12-03T05:08:18.924Z,42.20
2022-12-03T05:08:50.631Z,45.80
2022-12-03T05:09:22.371Z,43.00
2022-12-03T05:09:54.258Z,42.20
2022-12-03T05:10:25.968Z,44.00
2022-12-03T05:10:57.723Z,46.30
2022-12-03T05:11:29.653Z,44.60
2022-12-03T05:12:01.483Z,42.50
2022-12-03T05:12:33.271Z,48.10
2022-12-03T05:13:05.011Z,41.80
2022-12-03T05:13:36.731Z,44.40
2022-12-03T05:14:08.935Z,42.30
2022-12-03T05:14:40.587Z,44.80
2022-12-03T05:15:12.277Z,42.00
2022-12-03T05:15:44.090Z,44.90
2022-12-03T05:16:15.705Z,46.60
2022-12-03T05:16:47.492Z,45.50
2022-12-03T05:17:19.299Z,43.10
2022-12-03T05:17:51.019Z,42.30
2022-12-03T05:18:22.676Z,48.10
2022-12-03T05:18:54.438Z,49.80
2022-12-03T05:19:46.098Z,43.70
2022-12-03T05:20:36.173Z,40.10
2022-12-03T05:21:07.930Z,42.60
2022-12-03T05:21:39.659Z,45.60
2022-12-03T05:22:11.373Z,47.10
2022-12-03T05:22:43.160Z,40.70
2022-12-03T05:23:14.889Z,43.20
2022-12-03T05:23:46.836Z,43.20
2022-12-03T05:24:18.500Z,45.10
2022-12-03T05:24:50.383Z,46.30
2022-12-03T05:25:22.720Z,50.90
2022-12-03T05:25:54.419Z,45.70
2022-12-03T05:26:26.069Z,48.10
2022-12-03T05:26:57.767Z,48.30
2022-12-03T05:27:29.437Z,43.30
2022-12-03T05:28:01.085Z,45.60
2022-12-03T05:28:32.796Z,46.90
2022-12-03T05:29:04.525Z,47.40
2022-12-03T05:29:36.192Z,41.30
2022-12-03T05:30:08.227Z,42.10
2022-12-03T05:30:40.061Z,51.40
2022-12-03T05:31:11.957Z,43.60
2022-12-03T05:31:43.859Z,41.60
2022-12-03T05:32:15.635Z,47.30
2022-12-03T05:32:47.550Z,47.10
2022-12-03T05:33:19.993Z,45.80
2022-12-03T05:33:51.887Z,45.00
2022-12-03T05:34:23.770Z,46.50
2022-12-03T05:34:55.687Z,44.10
2022-12-03T05:35:27.548Z,44.50
2022-12-03T05:35:59.243Z,43.50
2022-12-03T05:36:31.010Z,45.90
2022-12-03T05:37:02.847Z,40.60
2022-12-03T05:37:34.613Z,43.30
2022-12-03T05:38:06.340Z,45.60
2022-12-03T05:38:38.171Z,47.20
2022-12-03T05:39:10.052Z,39.40
2022-12-03T05:39:41.888Z,47.00
2022-12-03T05:40:13.904Z,41.10
2022-12-03T05:40:45.597Z,43.40
2022-12-03T05:41:46.377Z,39.60
2022-12-03T05:42:36.616Z,41.30
2022-12-03T05:43:08.397Z,42.50
2022-12-03T05:43:40.270Z,42.60
2022-12-03T05:44:15.078Z,44.50
2022-12-03T05:44:51.162Z,42.50
2022-12-03T05:45:24.484Z,40.60
2022-12-03T05:45:56.412Z,47.70
2022-12-03T05:46:28.195Z,55.30
2022-12-03T05:47:00.059Z,43.30
2022-12-03T05:47:32.115Z,40.20
2022-12-03T05:48:04.830Z,43.80
2022-12-03T05:48:36.528Z,41.90
2022-12-03T05:49:08.333Z,41.50
2022-12-03T05:49:40.068Z,46.50
2022-12-03T05:50:11.880Z,45.10
2022-12-03T05:50:44.804Z,44.00
2022-12-03T05:51:16.557Z,43.50
2022-12-03T05:51:48.218Z,44.40
2022-12-03T05:52:19.960Z,44.00
2022-12-03T05:52:51.588Z,47.30
2022-12-03T05:53:23.391Z,47.00
2022-12-03T05:53:55.185Z,47.80
2022-12-03T05:54:26.842Z,46.20
2022-12-03T05:54:58.640Z,40.30
2022-12-03T05:55:30.581Z,40.70
2022-12-03T05:56:02.358Z,45.30
2022-12-03T05:56:34.102Z,50.50
2022-12-03T05:57:05.799Z,46.30
2022-12-03T05:57:37.921Z,43.10
2022-12-03T05:58:09.692Z,43.00
2022-12-03T05:58:41.300Z,44.70
2022-12-03T05:59:13.349Z,43.50
2022-12-03T05:59:45.045Z,47.30
2022-12-03T06:00:18.644Z,44.10
2022-12-03T06:00:50.240Z,46.00
2022-12-03T06:01:22.017Z,45.50
2022-12-03T06:01:53.936Z,43.10
2022-12-03T06:02:25.892Z,46.00
2022-12-03T06:02:58.548Z,42.30
2022-12-03T06:03:30.676Z,47.50
2022-12-03T06:04:02.676Z,45.10
2022-12-03T06:04:34.494Z,48.10
2022-12-03T06:05:06.861Z,43.70
2022-12-03T06:05:38.629Z,46.80
2022-12-03T06:06:10.236Z,48.10
2022-12-03T06:06:41.938Z,47.40
2022-12-03T06:07:14.451Z,47.50
2022-12-03T06:07:46.856Z,51.50
2022-12-03T06:08:18.864Z,48.40
2022-12-03T06:08:50.722Z,45.90
2022-12-03T06:09:22.376Z,50.80
2022-12-03T06:09:54.146Z,54.70
2022-12-03T06:10:26.009Z,51.30
2022-12-03T06:10:57.616Z,57.70
2022-12-03T06:11:29.811Z,53.80
2022-12-03T06:12:01.514Z,55.90
2022-12-03T06:12:33.219Z,63.40
2022-12-03T06:13:04.961Z,62.60
2022-12-03T06:13:36.622Z,58.70
2022-12-03T06:14:08.620Z,60.30
2022-12-03T06:14:40.618Z,65.40
2022-12-03T06:15:13.661Z,62.60
2022-12-03T06:15:45.578Z,59.60
2022-12-03T06:16:17.477Z,54.70
2022-12-03T06:16:49.197Z,59.60
2022-12-03T06:17:20.983Z,63.40
2022-12-03T06:17:52.749Z,49.30
2022-12-03T06:18:24.736Z,54.10
2022-12-03T06:18:56.491Z,51.60
2022-12-03T06:19:28.158Z,54.00
2022-12-03T06:19:59.958Z,52.10
2022-12-03T06:20:31.645Z,50.30
2022-12-03T06:21:03.360Z,48.90
2022-12-03T06:21:35.027Z,47.50
2022-12-03T06:22:06.765Z,49.60
2022-12-03T06:22:38.539Z,46.50
2022-12-03T06:23:10.178Z,50.80
2022-12-03T06:23:44.103Z,48.50
2022-12-03T06:24:15.811Z,42.60
2022-12-03T06:24:47.561Z,45.50
2022-12-03T06:25:19.181Z,41.50
2022-12-03T06:25:50.854Z,41.00
2022-12-03T06:26:22.520Z,42.10
2022-12-03T06:26:54.264Z,41.10
2022-12-03T06:27:26.092Z,41.10
2022-12-03T06:27:57.922Z,41.80
2022-12-03T06:28:29.683Z,43.90
2022-12-03T06:29:01.615Z,40.40
2022-12-03T06:29:33.574Z,41.60
2022-12-03T06:30:05.710Z,39.00
2022-12-03T06:30:37.358Z,40.30
2022-12-03T06:31:09.356Z,42.70
2022-12-03T06:31:41.351Z,45.40
2022-12-03T06:32:13.050Z,41.10
2022-12-03T06:32:44.777Z,40.20
2022-12-03T06:33:16.464Z,41.20
2022-12-03T06:33:48.310Z,43.90
2022-12-03T06:34:20.251Z,40.60
2022-12-03T06:34:52.356Z,46.00
2022-12-03T06:35:24.276Z,41.90
2022-12-03T06:35:55.951Z,42.10
2022-12-03T06:36:27.643Z,48.50
2022-12-03T06:36:59.394Z,41.90
2022-12-03T06:37:31.373Z,40.30
2022-12-03T06:38:03.184Z,39.60
2022-12-03T06:38:34.865Z,40.20
2022-12-03T06:39:06.656Z,49.00
2022-12-03T06:39:38.539Z,47.30
2022-12-03T06:40:10.554Z,45.80
2022-12-03T06:40:42.206Z,43.30
2022-12-03T06:41:14.011Z,40.30
2022-12-03T06:41:45.744Z,41.90
2022-12-03T06:42:19.635Z,42.00
2022-12-03T06:42:51.742Z,40.40
2022-12-03T06:43:23.573Z,40.80
2022-12-03T06:43:55.231Z,38.80
2022-12-03T06:44:27.667Z,41.60
2022-12-03T06:45:00.089Z,37.60
2022-12-03T06:45:32.180Z,36.40
2022-12-03T06:46:04.233Z,39.70
2022-12-03T06:46:36.179Z,39.30
2022-12-03T06:47:07.900Z,36.60
2022-12-03T06:47:39.793Z,40.70
2022-12-03T06:48:11.551Z,38.40
2022-12-03T06:48:44.026Z,39.40
2022-12-03T06:49:15.853Z,40.60
2022-12-03T06:49:47.635Z,41.60
2022-12-03T06:50:19.383Z,38.30
2022-12-03T06:50:51.282Z,47.70
2022-12-03T06:51:23.111Z,39.20
2022-12-03T06:51:55.618Z,38.50
2022-12-03T06:52:27.641Z,38.40
2022-12-03T06:52:59.411Z,39.50
2022-12-03T06:53:31.113Z,36.30
2022-12-03T06:54:03.045Z,37.50
2022-12-03T06:54:34.983Z,40.20
2022-12-03T06:55:07.062Z,39.00
2022-12-03T06:55:39.001Z,46.70
2022-12-03T06:56:10.701Z,40.50
2022-12-03T06:56:45.339Z,41.20
2022-12-03T06:57:17.493Z,40.90
2022-12-03T06:57:49.286Z,38.50
2022-12-03T06:58:21.025Z,39.00
2022-12-03T06:58:53.122Z,37.20
2022-12-03T06:59:25.054Z,41.20
2022-12-03T06:59:56.953Z,39.20
2022-12-03T07:00:29.014Z,39.70
2022-12-03T07:01:01.219Z,37.50
2022-12-03T07:01:33.287Z,43.00
2022-12-03T07:02:05.193Z,40.30
2022-12-03T07:02:37.049Z,39.90
2022-12-03T07:03:09.113Z,39.60
2022-12-03T07:03:40.876Z,41.40
2022-12-03T07:04:12.512Z,39.80
2022-12-03T07:04:46.428Z,35.30
2022-12-03T07:05:18.572Z,41.70
2022-12-03T07:05:50.425Z,40.50
2022-12-03T07:06:22.285Z,42.30
2022-12-03T07:06:54.050Z,41.40